sensor_id;sensor_type;location;lat;lon;timestamp;temperature;humidity
19870;DHT22;10097;50.862;4.696;2022-12-05T00:00:19;3.80;99.90
19870;DHT22;10097;50.862;4.696;2022-12-05T00:02:45;3.80;99.90
19870;DHT22;10097;50.862;4.696;2022-12-05T00:05:11;3.90;99.90
19870;DHT22;10097;50.862;4.696;2022-12-05T00:07:37;3.80;99.90
19870;DHT22;10097;50.862;4.696;2022-12-05T00:10:04;3.80;99.90
19870;DHT22;10097;50.862;4.696;2022-12-05T00:12:30;3.90;99.90
19870;DHT22;10097;50.862;4.696;2022-12-05T00:14:56;4.00;99.90
19870;DHT22;10097;50.862;4.696;2022-12-05T00:17:22;4.00;99.90
19870;DHT22;10097;50.862;4.696;2022-12-05T00:19:47;4.10;99.90
19870;DHT22;10097;50.862;4.696;2022-12-05T00:22:13;4.10;99.90
19870;DHT22;10097;50.862;4.696;2022-12-05T00:24:39;4.00;99.90
19870;DHT22;10097;50.862;4.696;2022-12-05T00:27:05;3.80;99.90
19870;DHT22;10097;50.862;4.696;2022-12-05T00:29:30;3.80;99.90
19870;DHT22;10097;50.862;4.696;2022-12-05T00:31:56;3.70;99.90
19870;DHT22;10097;50.862;4.696;2022-12-05T00:34:22;3.80;99.90
19870;DHT22;10097;50.862;4.696;2022-12-05T00:36:48;3.80;99.90
19870;DHT22;10097;50.862;4.696;2022-12-05T00:39:13;3.80;99.90
19870;DHT22;10097;50.862;4.696;2022-12-05T00:41:40;3.70;99.90
19870;DHT22;10097;50.862;4.696;2022-12-05T00:44:06;3.70;99.90
19870;DHT22;10097;50.862;4.696;2022-12-05T00:46:33;3.70;99.90
19870;DHT22;10097;50.862;4.696;2022-12-05T00:49:00;3.60;99.90
19870;DHT22;10097;50.862;4.696;2022-12-05T00:51:31;3.80;99.90
19870;DHT22;10097;50.862;4.696;2022-12-05T00:54:03;3.90;99.90
19870;DHT22;10097;50.862;4.696;2022-12-05T00:56:30;3.90;99.90
19870;DHT22;10097;50.862;4.696;2022-12-05T00:58:58;4.00;99.90
19870;DHT22;10097;50.862;4.696;2022-12-05T01:01:30;3.90;99.90
19870;DHT22;10097;50.862;4.696;2022-12-05T01:04:00;3.90;99.90
19870;DHT22;10097;50.862;4.696;2022-12-05T01:06:27;3.80;99.90
19870;DHT22;10097;50.862;4.696;2022-12-05T01:08:54;3.80;99.90
19870;DHT22;10097;50.862;4.696;2022-12-05T01:11:20;3.70;99.90
19870;DHT22;10097;50.862;4.696;2022-12-05T01:13:47;3.70;99.90
19870;DHT22;10097;50.862;4.696;2022-12-05T01:16:26;3.70;99.90
19870;DHT22;10097;50.862;4.696;2022-12-05T01:18:52;3.90;99.90
19870;DHT22;10097;50.862;4.696;2022-12-05T01:21:18;3.80;99.90
19870;DHT22;10097;50.862;4.696;2022-12-05T01:23:44;3.80;99.90
19870;DHT22;10097;50.862;4.696;2022-12-05T01:26:12;3.90;99.90
19870;DHT22;10097;50.862;4.696;2022-12-05T01:28:39;3.90;99.90
19870;DHT22;10097;50.862;4.696;2022-12-05T01:31:16;3.90;99.90
19870;DHT22;10097;50.862;4.696;2022-12-05T01:33:42;3.90;99.90
19870;DHT22;10097;50.862;4.696;2022-12-05T01:36:10;3.90;99.90
19870;DHT22;10097;50.862;4.696;2022-12-05T01:38:39;3.90;99.90
19870;DHT22;10097;50.862;4.696;2022-12-05T01:41:07;4.00;99.90
19870;DHT22;10097;50.862;4.696;2022-12-05T01:43:51;4.00;99.90
19870;DHT22;10097;50.862;4.696;2022-12-05T01:46:17;4.10;99.90
19870;DHT22;10097;50.862;4.696;2022-12-05T01:48:42;4.00;99.90
19870;DHT22;10097;50.862;4.696;2022-12-05T01:51:09;4.20;99.90
19870;DHT22;10097;50.862;4.696;2022-12-05T01:53:35;4.00;99.90
19870;DHT22;10097;50.862;4.696;2022-12-05T01:56:01;4.10;99.90
19870;DHT22;10097;50.862;4.696;2022-12-05T01:58:30;4.10;99.90
19870;DHT22;10097;50.862;4.696;2022-12-05T02:00:59;4.00;99.90
19870;DHT22;10097;50.862;4.696;2022-12-05T02:03:25;3.90;99.90
19870;DHT22;10097;50.862;4.696;2022-12-05T02:05:53;3.90;99.90
19870;DHT22;10097;50.862;4.696;2022-12-05T02:08:21;4.00;99.90
19870;DHT22;10097;50.862;4.696;2022-12-05T02:10:50;3.90;99.90
19870;DHT22;10097;50.862;4.696;2022-12-05T02:13:46;4.10;99.90
19870;DHT22;10097;50.862;4.696;2022-12-05T02:22:49;4.10;99.90
19870;DHT22;10097;50.862;4.696;2022-12-05T02:31:13;4.20;99.90
19870;DHT22;10097;50.862;4.696;2022-12-05T02:33:54;4.10;99.90
19870;DHT22;10097;50.862;4.696;2022-12-05T02:36:35;4.10;99.90
19870;DHT22;10097;50.862;4.696;2022-12-05T02:39:15;4.10;99.90
19870;DHT22;10097;50.862;4.696;2022-12-05T02:41:54;4.00;99.90
19870;DHT22;10097;50.862;4.696;2022-12-05T02:44:46;4.10;99.90
19870;DHT22;10097;50.862;4.696;2022-12-05T02:47:17;4.20;99.90
19870;DHT22;10097;50.862;4.696;2022-12-05T02:49:44;4.20;99.90
19870;DHT22;10097;50.862;4.696;2022-12-05T02:52:13;4.20;99.90
19870;DHT22;10097;50.862;4.696;2022-12-05T02:54:42;4.20;99.90
19870;DHT22;10097;50.862;4.696;2022-12-05T02:57:10;4.10;99.90
19870;DHT22;10097;50.862;4.696;2022-12-05T02:59:37;4.00;99.90
19870;DHT22;10097;50.862;4.696;2022-12-05T03:02:03;4.00;99.90
19870;DHT22;10097;50.862;4.696;2022-12-05T03:04:30;3.90;99.90
19870;DHT22;10097;50.862;4.696;2022-12-05T03:06:59;3.90;99.90
19870;DHT22;10097;50.862;4.696;2022-12-05T03:09:36;4.00;99.90
19870;DHT22;10097;50.862;4.696;2022-12-05T03:12:09;4.00;99.90
19870;DHT22;10097;50.862;4.696;2022-12-05T03:14:45;4.00;99.90
19870;DHT22;10097;50.862;4.696;2022-12-05T03:17:16;4.00;99.90
19870;DHT22;10097;50.862;4.696;2022-12-05T03:19:49;3.80;99.90
19870;DHT22;10097;50.862;4.696;2022-12-05T03:22:22;3.80;99.90
19870;DHT22;10097;50.862;4.696;2022-12-05T03:24:49;3.80;99.90
19870;DHT22;10097;50.862;4.696;2022-12-05T03:27:51;3.80;99.90
19870;DHT22;10097;50.862;4.696;2022-12-05T03:30:20;3.80;99.90
19870;DHT22;10097;50.862;4.696;2022-12-05T03:33:13;3.80;99.90
19870;DHT22;10097;50.862;4.696;2022-12-05T03:43:43;3.80;99.90
19870;DHT22;10097;50.862;4.696;2022-12-05T03:46:55;3.80;99.90
19870;DHT22;10097;50.862;4.696;2022-12-05T03:49:29;3.90;99.90
19870;DHT22;10097;50.862;4.696;2022-12-05T03:52:13;4.00;99.90
19870;DHT22;10097;50.862;4.696;2022-12-05T03:54:48;3.90;99.90
19870;DHT22;10097;50.862;4.696;2022-12-05T04:00:19;3.70;99.90
19870;DHT22;10097;50.862;4.696;2022-12-05T04:02:51;3.80;99.90
19870;DHT22;10097;50.862;4.696;2022-12-05T04:05:31;3.90;99.90
19870;DHT22;10097;50.862;4.696;2022-12-05T04:08:07;3.90;99.90
19870;DHT22;10097;50.862;4.696;2022-12-05T04:10:38;4.00;99.90
19870;DHT22;10097;50.862;4.696;2022-12-05T04:13:50;4.10;99.90
19870;DHT22;10097;50.862;4.696;2022-12-05T04:16:17;4.00;99.90
19870;DHT22;10097;50.862;4.696;2022-12-05T04:19:20;3.80;99.90
19870;DHT22;10097;50.862;4.696;2022-12-05T04:21:51;3.80;99.90
19870;DHT22;10097;50.862;4.696;2022-12-05T04:24:20;3.80;99.90
19870;DHT22;10097;50.862;4.696;2022-12-05T04:27:25;3.90;99.90
19870;DHT22;10097;50.862;4.696;2022-12-05T04:35:08;4.00;99.90
19870;DHT22;10097;50.862;4.696;2022-12-05T04:37:39;4.00;99.90
19870;DHT22;10097;50.862;4.696;2022-12-05T04:40:15;4.10;99.90
19870;DHT22;10097;50.862;4.696;2022-12-05T04:42:42;4.00;99.90
19870;DHT22;10097;50.862;4.696;2022-12-05T04:45:11;4.00;99.90
19870;DHT22;10097;50.862;4.696;2022-12-05T04:47:43;4.00;99.90
19870;DHT22;10097;50.862;4.696;2022-12-05T04:50:13;4.00;99.90
19870;DHT22;10097;50.862;4.696;2022-12-05T04:52:39;4.10;99.90
19870;DHT22;10097;50.862;4.696;2022-12-05T04:55:12;4.10;99.90
19870;DHT22;10097;50.862;4.696;2022-12-05T04:58:06;4.10;99.90
19870;DHT22;10097;50.862;4.696;2022-12-05T05:00:37;4.10;99.90
19870;DHT22;10097;50.862;4.696;2022-12-05T05:03:35;4.00;99.90
19870;DHT22;10097;50.862;4.696;2022-12-05T05:06:02;4.10;99.90
19870;DHT22;10097;50.862;4.696;2022-12-05T05:08:28;4.10;99.90
19870;DHT22;10097;50.862;4.696;2022-12-05T05:11:17;4.10;99.90
19870;DHT22;10097;50.862;4.696;2022-12-05T05:13:43;4.10;99.90
19870;DHT22;10097;50.862;4.696;2022-12-05T05:16:19;3.90;99.90
19870;DHT22;10097;50.862;4.696;2022-12-05T05:18:46;3.90;99.90
19870;DHT22;10097;50.862;4.696;2022-12-05T05:24:15;3.90;99.90
19870;DHT22;10097;50.862;4.696;2022-12-05T05:26:42;3.80;99.90
19870;DHT22;10097;50.862;4.696;2022-12-05T05:29:09;4.00;99.90
19870;DHT22;10097;50.862;4.696;2022-12-05T05:31:36;4.10;99.90
19870;DHT22;10097;50.862;4.696;2022-12-05T05:34:02;4.20;99.90
19870;DHT22;10097;50.862;4.696;2022-12-05T05:36:28;4.20;99.90
19870;DHT22;10097;50.862;4.696;2022-12-05T05:38:56;4.10;99.90
19870;DHT22;10097;50.862;4.696;2022-12-05T05:41:30;4.10;99.90
19870;DHT22;10097;50.862;4.696;2022-12-05T05:43:56;4.20;99.90
19870;DHT22;10097;50.862;4.696;2022-12-05T05:46:25;4.10;99.90
19870;DHT22;10097;50.862;4.696;2022-12-05T05:48:51;4.10;99.90
19870;DHT22;10097;50.862;4.696;2022-12-05T05:51:18;4.20;99.90
19870;DHT22;10097;50.862;4.696;2022-12-05T05:53:44;4.20;99.90
19870;DHT22;10097;50.862;4.696;2022-12-05T05:56:16;4.30;99.90
19870;DHT22;10097;50.862;4.696;2022-12-05T05:58:42;4.30;99.90
19870;DHT22;10097;50.862;4.696;2022-12-05T06:01:14;4.30;99.90
19870;DHT22;10097;50.862;4.696;2022-12-05T06:03:40;4.20;99.90
19870;DHT22;10097;50.862;4.696;2022-12-05T06:06:09;4.20;99.90
19870;DHT22;10097;50.862;4.696;2022-12-05T06:08:36;4.30;99.90
19870;DHT22;10097;50.862;4.696;2022-12-05T06:11:10;4.30;99.90
19870;DHT22;10097;50.862;4.696;2022-12-05T06:13:37;4.40;99.90
19870;DHT22;10097;50.862;4.696;2022-12-05T06:16:07;4.50;99.90
19870;DHT22;10097;50.862;4.696;2022-12-05T06:18:34;4.60;99.90
19870;DHT22;10097;50.862;4.696;2022-12-05T06:21:00;4.60;99.90
19870;DHT22;10097;50.862;4.696;2022-12-05T06:23:26;4.60;99.90
19870;DHT22;10097;50.862;4.696;2022-12-05T06:25:54;4.60;99.90
19870;DHT22;10097;50.862;4.696;2022-12-05T06:28:22;4.60;99.90
19870;DHT22;10097;50.862;4.696;2022-12-05T06:30:48;4.60;99.90
19870;DHT22;10097;50.862;4.696;2022-12-05T06:33:14;4.60;99.90
19870;DHT22;10097;50.862;4.696;2022-12-05T06:35:39;4.70;99.90
19870;DHT22;10097;50.862;4.696;2022-12-05T06:38:06;4.70;99.90
19870;DHT22;10097;50.862;4.696;2022-12-05T06:40:32;4.80;99.90
19870;DHT22;10097;50.862;4.696;2022-12-05T06:42:58;4.70;99.90
19870;DHT22;10097;50.862;4.696;2022-12-05T06:45:23;4.70;99.90
19870;DHT22;10097;50.862;4.696;2022-12-05T06:47:50;4.70;99.90
19870;DHT22;10097;50.862;4.696;2022-12-05T06:50:16;4.80;99.90
19870;DHT22;10097;50.862;4.696;2022-12-05T06:52:42;4.90;99.90
19870;DHT22;10097;50.862;4.696;2022-12-05T06:55:08;4.80;99.90
19870;DHT22;10097;50.862;4.696;2022-12-05T06:57:34;4.80;99.90
19870;DHT22;10097;50.862;4.696;2022-12-05T06:59:59;4.80;99.90
19870;DHT22;10097;50.862;4.696;2022-12-05T07:02:43;4.80;99.90
19870;DHT22;10097;50.862;4.696;2022-12-05T07:05:10;4.80;99.90
19870;DHT22;10097;50.862;4.696;2022-12-05T07:07:36;4.80;99.90
19870;DHT22;10097;50.862;4.696;2022-12-05T07:10:02;4.80;99.90
19870;DHT22;10097;50.862;4.696;2022-12-05T07:12:28;4.80;99.90
19870;DHT22;10097;50.862;4.696;2022-12-05T07:14:54;4.80;99.90
19870;DHT22;10097;50.862;4.696;2022-12-05T07:17:21;4.80;99.90
19870;DHT22;10097;50.862;4.696;2022-12-05T07:19:48;4.70;99.90
19870;DHT22;10097;50.862;4.696;2022-12-05T07:22:14;4.60;99.90
19870;DHT22;10097;50.862;4.696;2022-12-05T07:24:40;4.60;99.90
19870;DHT22;10097;50.862;4.696;2022-12-05T07:27:06;4.60;99.90
19870;DHT22;10097;50.862;4.696;2022-12-05T07:29:31;4.60;99.90
19870;DHT22;10097;50.862;4.696;2022-12-05T07:31:57;4.40;99.90
19870;DHT22;10097;50.862;4.696;2022-12-05T07:34:23;4.40;99.90
19870;DHT22;10097;50.862;4.696;2022-12-05T07:36:48;4.50;99.90
19870;DHT22;10097;50.862;4.696;2022-12-05T07:39:14;4.50;99.90
19870;DHT22;10097;50.862;4.696;2022-12-05T07:41:40;4.60;99.90
19870;DHT22;10097;50.862;4.696;2022-12-05T07:44:08;4.60;99.90
19870;DHT22;10097;50.862;4.696;2022-12-05T07:46:34;4.60;99.90
19870;DHT22;10097;50.862;4.696;2022-12-05T07:49:00;4.60;99.90
19870;DHT22;10097;50.862;4.696;2022-12-05T07:51:26;4.60;99.90
19870;DHT22;10097;50.862;4.696;2022-12-05T07:53:51;4.70;99.90
19870;DHT22;10097;50.862;4.696;2022-12-05T07:56:18;4.70;99.90
19870;DHT22;10097;50.862;4.696;2022-12-05T07:58:45;4.70;99.90
19870;DHT22;10097;50.862;4.696;2022-12-05T08:01:18;4.70;99.90
19870;DHT22;10097;50.862;4.696;2022-12-05T08:03:45;4.70;99.90
19870;DHT22;10097;50.862;4.696;2022-12-05T08:06:16;4.70;99.90
19870;DHT22;10097;50.862;4.696;2022-12-05T08:08:43;4.80;99.90
19870;DHT22;10097;50.862;4.696;2022-12-05T08:11:14;4.80;99.90
19870;DHT22;10097;50.862;4.696;2022-12-05T08:13:41;4.80;99.90
19870;DHT22;10097;50.862;4.696;2022-12-05T08:16:10;4.80;99.90
19870;DHT22;10097;50.862;4.696;2022-12-05T08:18:36;4.90;99.90
19870;DHT22;10097;50.862;4.696;2022-12-05T08:21:04;4.90;99.90
19870;DHT22;10097;50.862;4.696;2022-12-05T08:23:31;4.90;99.90
19870;DHT22;10097;50.862;4.696;2022-12-05T08:26:14;5.00;99.90
19870;DHT22;10097;50.862;4.696;2022-12-05T08:28:40;4.90;99.90
19870;DHT22;10097;50.862;4.696;2022-12-05T08:31:15;4.90;99.90
19870;DHT22;10097;50.862;4.696;2022-12-05T08:33:42;4.80;99.90
19870;DHT22;10097;50.862;4.696;2022-12-05T08:36:13;4.80;99.90
19870;DHT22;10097;50.862;4.696;2022-12-05T08:38:40;4.80;99.90
19870;DHT22;10097;50.862;4.696;2022-12-05T08:41:08;4.90;99.90
19870;DHT22;10097;50.862;4.696;2022-12-05T08:43:35;4.90;99.90
19870;DHT22;10097;50.862;4.696;2022-12-05T08:46:00;4.70;99.90
19870;DHT22;10097;50.862;4.696;2022-12-05T08:48:28;4.70;99.90
19870;DHT22;10097;50.862;4.696;2022-12-05T08:50:54;4.80;99.90
19870;DHT22;10097;50.862;4.696;2022-12-05T08:53:19;4.80;99.90
19870;DHT22;10097;50.862;4.696;2022-12-05T08:55:45;4.80;99.90
19870;DHT22;10097;50.862;4.696;2022-12-05T08:58:11;4.60;99.90
19870;DHT22;10097;50.862;4.696;2022-12-05T09:00:38;4.60;99.90
19870;DHT22;10097;50.862;4.696;2022-12-05T09:03:03;4.70;99.90
19870;DHT22;10097;50.862;4.696;2022-12-05T09:05:29;4.70;99.90
19870;DHT22;10097;50.862;4.696;2022-12-05T09:07:55;4.80;99.90
19870;DHT22;10097;50.862;4.696;2022-12-05T09:10:21;4.70;99.90
19870;DHT22;10097;50.862;4.696;2022-12-05T09:12:47;4.80;99.90
19870;DHT22;10097;50.862;4.696;2022-12-05T09:15:12;4.90;99.90
19870;DHT22;10097;50.862;4.696;2022-12-05T09:17:38;5.00;99.90
19870;DHT22;10097;50.862;4.696;2022-12-05T09:20:05;5.10;99.90
19870;DHT22;10097;50.862;4.696;2022-12-05T09:22:32;5.10;99.90
19870;DHT22;10097;50.862;4.696;2022-12-05T09:24:57;5.20;99.90
19870;DHT22;10097;50.862;4.696;2022-12-05T09:27:23;5.20;99.90
19870;DHT22;10097;50.862;4.696;2022-12-05T09:29:49;5.20;99.90
19870;DHT22;10097;50.862;4.696;2022-12-05T09:32:15;5.20;99.90
19870;DHT22;10097;50.862;4.696;2022-12-05T09:34:40;5.10;99.90
19870;DHT22;10097;50.862;4.696;2022-12-05T09:37:06;5.10;99.90
19870;DHT22;10097;50.862;4.696;2022-12-05T09:39:33;5.10;99.90
19870;DHT22;10097;50.862;4.696;2022-12-05T09:42:15;5.10;99.90
19870;DHT22;10097;50.862;4.696;2022-12-05T09:55:38;5.10;99.90
19870;DHT22;10097;50.862;4.696;2022-12-05T09:58:11;5.10;99.90
19870;DHT22;10097;50.862;4.696;2022-12-05T10:00:39;5.30;99.90
19870;DHT22;10097;50.862;4.696;2022-12-05T10:03:20;5.30;99.90
19870;DHT22;10097;50.862;4.696;2022-12-05T10:11:38;5.30;99.90
19870;DHT22;10097;50.862;4.696;2022-12-05T10:17:09;5.10;99.90
19870;DHT22;10097;50.862;4.696;2022-12-05T10:19:43;5.00;99.90
19870;DHT22;10097;50.862;4.696;2022-12-05T10:22:21;5.10;99.90
19870;DHT22;10097;50.862;4.696;2022-12-05T10:24:59;5.10;99.90
19870;DHT22;10097;50.862;4.696;2022-12-05T10:27:52;5.20;99.90
19870;DHT22;10097;50.862;4.696;2022-12-05T10:30:21;5.30;99.90
19870;DHT22;10097;50.862;4.696;2022-12-05T10:33:04;5.30;99.90
19870;DHT22;10097;50.862;4.696;2022-12-05T10:35:38;5.10;99.90
19870;DHT22;10097;50.862;4.696;2022-12-05T10:40:45;5.10;99.90
19870;DHT22;10097;50.862;4.696;2022-12-05T10:43:14;5.10;99.90
19870;DHT22;10097;50.862;4.696;2022-12-05T10:45:46;5.20;99.90
19870;DHT22;10097;50.862;4.696;2022-12-05T10:48:14;5.30;99.90
19870;DHT22;10097;50.862;4.696;2022-12-05T10:50:43;5.40;99.90
19870;DHT22;10097;50.862;4.696;2022-12-05T10:53:17;5.40;99.90
19870;DHT22;10097;50.862;4.696;2022-12-05T10:55:46;5.40;99.90
19870;DHT22;10097;50.862;4.696;2022-12-05T10:58:15;5.40;99.90
19870;DHT22;10097;50.862;4.696;2022-12-05T11:00:42;5.30;99.90
19870;DHT22;10097;50.862;4.696;2022-12-05T11:03:34;5.40;99.90
19870;DHT22;10097;50.862;4.696;2022-12-05T11:06:27;5.30;99.90
19870;DHT22;10097;50.862;4.696;2022-12-05T11:08:55;5.30;99.90
19870;DHT22;10097;50.862;4.696;2022-12-05T11:11:31;5.30;99.90
19870;DHT22;10097;50.862;4.696;2022-12-05T11:14:04;5.30;99.90
19870;DHT22;10097;50.862;4.696;2022-12-05T11:16:32;5.30;99.90
19870;DHT22;10097;50.862;4.696;2022-12-05T11:21:46;5.20;99.90
19870;DHT22;10097;50.862;4.696;2022-12-05T11:24:27;5.20;99.90
19870;DHT22;10097;50.862;4.696;2022-12-05T11:26:55;5.20;99.90
19870;DHT22;10097;50.862;4.696;2022-12-05T11:29:29;5.00;99.90
19870;DHT22;10097;50.862;4.696;2022-12-05T11:31:55;5.10;99.90
19870;DHT22;10097;50.862;4.696;2022-12-05T11:34:24;5.30;99.90
19870;DHT22;10097;50.862;4.696;2022-12-05T11:37:04;5.10;99.90
19870;DHT22;10097;50.862;4.696;2022-12-05T11:39:34;5.10;99.90
19870;DHT22;10097;50.862;4.696;2022-12-05T11:45:16;5.10;99.90
19870;DHT22;10097;50.862;4.696;2022-12-05T11:56:04;4.90;99.90
19870;DHT22;10097;50.862;4.696;2022-12-05T11:58:43;5.10;99.90
19870;DHT22;10097;50.862;4.696;2022-12-05T12:06:32;5.20;99.90
19870;DHT22;10097;50.862;4.696;2022-12-05T12:26:10;5.40;99.90
19870;DHT22;10097;50.862;4.696;2022-12-05T12:28:52;5.60;99.90
19870;DHT22;10097;50.862;4.696;2022-12-05T12:37:28;5.50;99.90
19870;DHT22;10097;50.862;4.696;2022-12-05T12:40:12;5.60;99.90
19870;DHT22;10097;50.862;4.696;2022-12-05T12:42:45;5.50;99.90
19870;DHT22;10097;50.862;4.696;2022-12-05T12:50:53;5.50;99.90
19870;DHT22;10097;50.862;4.696;2022-12-05T12:53:49;5.70;99.90
19870;DHT22;10097;50.862;4.696;2022-12-05T12:59:27;5.50;99.90
19870;DHT22;10097;50.862;4.696;2022-12-05T13:05:00;5.50;99.90
19870;DHT22;10097;50.862;4.696;2022-12-05T13:07:40;5.60;99.90
19870;DHT22;10097;50.862;4.696;2022-12-05T13:12:53;5.60;99.90
19870;DHT22;10097;50.862;4.696;2022-12-05T13:15:27;5.50;99.90
19870;DHT22;10097;50.862;4.696;2022-12-05T13:17:55;5.40;99.90
19870;DHT22;10097;50.862;4.696;2022-12-05T13:20:24;5.30;99.90
19870;DHT22;10097;50.862;4.696;2022-12-05T13:22:53;5.30;99.90
19870;DHT22;10097;50.862;4.696;2022-12-05T13:25:20;5.40;99.90
19870;DHT22;10097;50.862;4.696;2022-12-05T13:28:28;5.40;99.90
19870;DHT22;10097;50.862;4.696;2022-12-05T13:30:56;5.30;99.90
19870;DHT22;10097;50.862;4.696;2022-12-05T13:33:25;5.30;99.90
19870;DHT22;10097;50.862;4.696;2022-12-05T13:36:18;5.50;99.90
19870;DHT22;10097;50.862;4.696;2022-12-05T13:39:18;5.60;99.90
19870;DHT22;10097;50.862;4.696;2022-12-05T13:42:04;5.70;99.90
19870;DHT22;10097;50.862;4.696;2022-12-05T13:44:42;5.60;99.90
19870;DHT22;10097;50.862;4.696;2022-12-05T13:50:35;5.40;99.90
19870;DHT22;10097;50.862;4.696;2022-12-05T13:53:26;5.40;99.90
19870;DHT22;10097;50.862;4.696;2022-12-05T13:56:05;5.20;99.90
19870;DHT22;10097;50.862;4.696;2022-12-05T14:17:28;5.50;99.90
19870;DHT22;10097;50.862;4.696;2022-12-05T14:28:32;5.70;99.90
19870;DHT22;10097;50.862;4.696;2022-12-05T14:30:40;5.70;99.90
19870;DHT22;10097;50.862;4.696;2022-12-05T14:33:14;5.80;99.90
19870;DHT22;10097;50.862;4.696;2022-12-05T14:35:44;5.70;99.90
19870;DHT22;10097;50.862;4.696;2022-12-05T14:38:26;5.70;99.90
19870;DHT22;10097;50.862;4.696;2022-12-05T14:40:53;5.70;99.90
19870;DHT22;10097;50.862;4.696;2022-12-05T14:43:21;5.50;99.90
19870;DHT22;10097;50.862;4.696;2022-12-05T14:50:50;5.60;99.90
19870;DHT22;10097;50.862;4.696;2022-12-05T14:55:53;5.70;99.90
19870;DHT22;10097;50.862;4.696;2022-12-05T15:01:13;5.70;99.90
19870;DHT22;10097;50.862;4.696;2022-12-05T15:03:55;5.70;99.90
19870;DHT22;10097;50.862;4.696;2022-12-05T15:06:23;5.50;99.90
19870;DHT22;10097;50.862;4.696;2022-12-05T15:08:53;5.40;99.90
19870;DHT22;10097;50.862;4.696;2022-12-05T15:11:22;5.40;99.90
19870;DHT22;10097;50.862;4.696;2022-12-05T15:16:36;5.70;99.90
19870;DHT22;10097;50.862;4.696;2022-12-05T15:19:12;5.70;99.90
19870;DHT22;10097;50.862;4.696;2022-12-05T15:21:45;5.70;99.90
19870;DHT22;10097;50.862;4.696;2022-12-05T15:24:16;5.80;99.90
19870;DHT22;10097;50.862;4.696;2022-12-05T15:34:36;5.80;99.90
19870;DHT22;10097;50.862;4.696;2022-12-05T15:37:11;5.70;99.90
19870;DHT22;10097;50.862;4.696;2022-12-05T15:39:59;5.60;99.90
19870;DHT22;10097;50.862;4.696;2022-12-05T15:42:37;5.60;99.90
19870;DHT22;10097;50.862;4.696;2022-12-05T15:47:40;5.50;99.90
19870;DHT22;10097;50.862;4.696;2022-12-05T15:55:33;5.70;99.90
19870;DHT22;10097;50.862;4.696;2022-12-05T16:00:55;6.00;99.90
19870;DHT22;10097;50.862;4.696;2022-12-05T16:03:52;6.00;99.90
19870;DHT22;10097;50.862;4.696;2022-12-05T16:06:36;5.90;99.90
19870;DHT22;10097;50.862;4.696;2022-12-05T16:09:08;5.80;99.90
19870;DHT22;10097;50.862;4.696;2022-12-05T16:11:37;5.80;99.90
19870;DHT22;10097;50.862;4.696;2022-12-05T16:14:05;5.80;99.90
19870;DHT22;10097;50.862;4.696;2022-12-05T16:16:35;5.90;99.90
19870;DHT22;10097;50.862;4.696;2022-12-05T16:19:15;5.90;99.90
19870;DHT22;10097;50.862;4.696;2022-12-05T16:21:46;6.00;99.90
19870;DHT22;10097;50.862;4.696;2022-12-05T16:24:20;5.90;99.90
19870;DHT22;10097;50.862;4.696;2022-12-05T16:27:15;6.00;99.90
19870;DHT22;10097;50.862;4.696;2022-12-05T16:29:42;6.00;99.90
19870;DHT22;10097;50.862;4.696;2022-12-05T16:32:27;6.00;99.90
19870;DHT22;10097;50.862;4.696;2022-12-05T16:34:53;5.90;99.90
19870;DHT22;10097;50.862;4.696;2022-12-05T16:37:26;5.90;99.90
19870;DHT22;10097;50.862;4.696;2022-12-05T16:39:53;5.80;99.90
19870;DHT22;10097;50.862;4.696;2022-12-05T16:42:27;5.80;99.90
19870;DHT22;10097;50.862;4.696;2022-12-05T16:50:31;5.70;99.90
19870;DHT22;10097;50.862;4.696;2022-12-05T16:53:03;5.80;99.90
19870;DHT22;10097;50.862;4.696;2022-12-05T16:55:28;5.90;99.90
19870;DHT22;10097;50.862;4.696;2022-12-05T16:57:54;5.90;99.90
19870;DHT22;10097;50.862;4.696;2022-12-05T17:00:21;6.00;99.90
19870;DHT22;10097;50.862;4.696;2022-12-05T17:02:46;6.10;99.90
19870;DHT22;10097;50.862;4.696;2022-12-05T17:05:13;6.10;99.90
19870;DHT22;10097;50.862;4.696;2022-12-05T17:07:39;6.00;99.90
19870;DHT22;10097;50.862;4.696;2022-12-05T17:10:05;5.90;99.90
19870;DHT22;10097;50.862;4.696;2022-12-05T17:12:31;5.80;99.90
19870;DHT22;10097;50.862;4.696;2022-12-05T17:14:57;5.80;99.90
19870;DHT22;10097;50.862;4.696;2022-12-05T17:17:23;5.80;99.90
19870;DHT22;10097;50.862;4.696;2022-12-05T17:19:48;5.80;99.90
19870;DHT22;10097;50.862;4.696;2022-12-05T17:22:14;5.90;99.90
19870;DHT22;10097;50.862;4.696;2022-12-05T17:24:40;6.00;99.90
19870;DHT22;10097;50.862;4.696;2022-12-05T17:27:10;6.00;99.90
19870;DHT22;10097;50.862;4.696;2022-12-05T17:29:36;6.00;99.90
19870;DHT22;10097;50.862;4.696;2022-12-05T17:32:02;6.00;99.90
19870;DHT22;10097;50.862;4.696;2022-12-05T17:34:28;6.00;99.90
19870;DHT22;10097;50.862;4.696;2022-12-05T17:36:54;6.00;99.90
19870;DHT22;10097;50.862;4.696;2022-12-05T17:39:20;6.00;99.90
19870;DHT22;10097;50.862;4.696;2022-12-05T17:41:45;6.00;99.90
19870;DHT22;10097;50.862;4.696;2022-12-05T17:44:13;5.90;99.90
19870;DHT22;10097;50.862;4.696;2022-12-05T17:46:41;6.00;99.90
19870;DHT22;10097;50.862;4.696;2022-12-05T17:49:14;5.90;99.90
19870;DHT22;10097;50.862;4.696;2022-12-05T17:51:41;5.90;99.90
19870;DHT22;10097;50.862;4.696;2022-12-05T17:54:07;5.90;99.90
19870;DHT22;10097;50.862;4.696;2022-12-05T17:56:33;5.80;99.90
19870;DHT22;10097;50.862;4.696;2022-12-05T17:58:58;5.90;99.90
19870;DHT22;10097;50.862;4.696;2022-12-05T18:01:24;5.90;99.90
19870;DHT22;10097;50.862;4.696;2022-12-05T18:03:50;5.90;99.90
19870;DHT22;10097;50.862;4.696;2022-12-05T18:06:15;6.00;99.90
19870;DHT22;10097;50.862;4.696;2022-12-05T18:08:41;5.90;99.90
19870;DHT22;10097;50.862;4.696;2022-12-05T18:11:10;5.90;99.90
19870;DHT22;10097;50.862;4.696;2022-12-05T18:13:36;5.90;99.90
19870;DHT22;10097;50.862;4.696;2022-12-05T18:16:01;5.90;99.90
19870;DHT22;10097;50.862;4.696;2022-12-05T18:18:28;5.80;99.90
19870;DHT22;10097;50.862;4.696;2022-12-05T18:21:02;5.90;99.90
19870;DHT22;10097;50.862;4.696;2022-12-05T18:23:28;6.00;99.90
19870;DHT22;10097;50.862;4.696;2022-12-05T18:25:58;6.00;99.90
19870;DHT22;10097;50.862;4.696;2022-12-05T18:28:24;5.90;99.90
19870;DHT22;10097;50.862;4.696;2022-12-05T18:30:50;5.90;99.90
19870;DHT22;10097;50.862;4.696;2022-12-05T18:33:26;6.00;99.90
19870;DHT22;10097;50.862;4.696;2022-12-05T18:35:52;5.80;99.90
19870;DHT22;10097;50.862;4.696;2022-12-05T18:38:17;5.70;99.90
19870;DHT22;10097;50.862;4.696;2022-12-05T18:40:43;5.80;99.90
19870;DHT22;10097;50.862;4.696;2022-12-05T18:43:09;5.80;99.90
19870;DHT22;10097;50.862;4.696;2022-12-05T18:45:35;5.80;99.90
19870;DHT22;10097;50.862;4.696;2022-12-05T18:48:00;5.90;99.90
19870;DHT22;10097;50.862;4.696;2022-12-05T18:50:26;6.00;99.90
19870;DHT22;10097;50.862;4.696;2022-12-05T18:52:52;6.00;99.90
19870;DHT22;10097;50.862;4.696;2022-12-05T18:55:18;6.00;99.90
19870;DHT22;10097;50.862;4.696;2022-12-05T18:57:43;5.90;99.90
19870;DHT22;10097;50.862;4.696;2022-12-05T19:00:09;5.90;99.90
19870;DHT22;10097;50.862;4.696;2022-12-05T19:02:35;5.90;99.90
19870;DHT22;10097;50.862;4.696;2022-12-05T19:05:01;6.00;99.90